sensor_id;sensor_type;location;lat;lon;timestamp;pressure;altitude;pressure_sealevel;temperature;humidity
64025;BME280;50266;57.446;26.936;2023-08-21T00:00:54;99477.48;;;16.65;100.0
64025;BME280;50266;57.446;26.936;2023-08-21T00:01:54;99483.03;;;16.66;100.0
64025;BME280;50266;57.446;26.936;2023-08-21T00:02:54;99478.73;;;16.65;100.0
64025;BME280;50266;57.446;26.936;2023-08-21T00:03:54;99475.78;;;16.64;100.0
64025;BME280;50266;57.446;26.936;2023-08-21T00:04:54;99472.97;;;16.62;100.0
64025;BME280;50266;57.446;26.936;2023-08-21T00:05:54;99476.5;;;16.62;100.0
64025;BME280;50266;57.446;26.936;2023-08-21T00:06:54;99475.19;;;16.64;100.0
64025;BME280;50266;57.446;26.936;2023-08-21T00:07:54;99472.39;;;16.67;100.0
64025;BME280;50266;57.446;26.936;2023-08-21T00:08:54;99473.49;;;16.68;100.0
64025;BME280;50266;57.446;26.936;2023-08-21T00:09:54;99476.82;;;16.66;100.0
64025;BME280;50266;57.446;26.936;2023-08-21T00:10:55;99495.33;;;16.65;100.0
64025;BME280;50266;57.446;26.936;2023-08-21T00:11:54;99494.68;;;16.61;100.0
64025;BME280;50266;57.446;26.936;2023-08-21T00:12:54;99495.28;;;16.67;100.0
64025;BME280;50266;57.446;26.936;2023-08-21T00:13:54;99501.22;;;16.63;100.0
64025;BME280;50266;57.446;26.936;2023-08-21T00:14:54;99501.45;;;16.65;100.0
64025;BME280;50266;57.446;26.936;2023-08-21T00:15:54;99502.4;;;16.66;100.0
64025;BME280;50266;57.446;26.936;2023-08-21T00:16:54;99497.88;;;16.66;100.0
64025;BME280;50266;57.446;26.936;2023-08-21T00:17:54;99495.91;;;16.69;100.0
64025;BME280;50266;57.446;26.936;2023-08-21T00:18:54;99494.8;;;16.64;100.0
64025;BME280;50266;57.446;26.936;2023-08-21T00:19:54;99493.6;;;16.62;100.0
64025;BME280;50266;57.446;26.936;2023-08-21T00:20:54;99493.84;;;16.62;100.0
64025;BME280;50266;57.446;26.936;2023-08-21T00:21:55;99492.56;;;16.61;100.0
64025;BME280;50266;57.446;26.936;2023-08-21T00:22:55;99491.58;;;16.62;100.0
64025;BME280;50266;57.446;26.936;2023-08-21T00:23:54;99489.05;;;16.61;100.0
64025;BME280;50266;57.446;26.936;2023-08-21T00:24:54;99490.06;;;16.61;100.0
64025;BME280;50266;57.446;26.936;2023-08-21T00:25:54;99484.66;;;16.64;100.0
64025;BME280;50266;57.446;26.936;2023-08-21T00:26:55;99485.97;;;16.62;100.0
64025;BME280;50266;57.446;26.936;2023-08-21T00:27:55;99482.92;;;16.6;100.0
64025;BME280;50266;57.446;26.936;2023-08-21T00:28:54;99484.36;;;16.61;100.0
64025;BME280;50266;57.446;26.936;2023-08-21T00:29:55;99482.94;;;16.63;100.0
64025;BME280;50266;57.446;26.936;2023-08-21T00:30:59;99483.36;;;16.66;100.0
64025;BME280;50266;57.446;26.936;2023-08-21T00:31:56;99485.16;;;16.63;100.0
64025;BME280;50266;57.446;26.936;2023-08-21T00:32:56;99485.45;;;16.61;100.0
64025;BME280;50266;57.446;26.936;2023-08-21T00:33:56;99482.77;;;16.63;100.0
64025;BME280;50266;57.446;26.936;2023-08-21T00:35:01;99483.89;;;16.63;100.0
64025;BME280;50266;57.446;26.936;2023-08-21T00:35:58;99482.89;;;16.63;100.0
64025;BME280;50266;57.446;26.936;2023-08-21T00:36:58;99482.01;;;16.63;100.0
64025;BME280;50266;57.446;26.936;2023-08-21T00:37:58;99480.54;;;16.63;100.0
64025;BME280;50266;57.446;26.936;2023-08-21T00:38:58;99478.36;;;16.63;100.0
64025;BME280;50266;57.446;26.936;2023-08-21T00:39:58;99478.77;;;16.62;100.0
64025;BME280;50266;57.446;26.936;2023-08-21T00:40:58;99477.45;;;16.64;100.0
64025;BME280;50266;57.446;26.936;2023-08-21T00:41:58;99482.0;;;16.65;100.0
64025;BME280;50266;57.446;26.936;2023-08-21T00:42:58;99479.86;;;16.67;100.0
64025;BME280;50266;57.446;26.936;2023-08-21T00:43:58;99482.03;;;16.62;100.0
64025;BME280;50266;57.446;26.936;2023-08-21T00:44:58;99479.88;;;16.64;100.0
64025;BME280;50266;57.446;26.936;2023-08-21T00:45:58;99478.81;;;16.65;100.0
64025;BME280;50266;57.446;26.936;2023-08-21T00:46:58;99477.47;;;16.65;100.0
64025;BME280;50266;57.446;26.936;2023-08-21T00:47:58;99480.16;;;16.63;100.0
64025;BME280;50266;57.446;26.936;2023-08-21T00:48:58;99478.17;;;16.62;100.0
64025;BME280;50266;57.446;26.936;2023-08-21T00:49:58;99478.06;;;16.61;100.0
64025;BME280;50266;57.446;26.936;2023-08-21T00:50:58;99479.56;;;16.6;100.0
64025;BME280;50266;57.446;26.936;2023-08-21T00:51:58;99477.55;;;16.6;100.0
64025;BME280;50266;57.446;26.936;2023-08-21T00:52:58;99475.39;;;16.63;100.0
64025;BME280;50266;57.446;26.936;2023-08-21T00:53:58;99476.33;;;16.62;100.0
64025;BME280;50266;57.446;26.936;2023-08-21T00:54:58;99476.88;;;16.6;100.0
64025;BME280;50266;57.446;26.936;2023-08-21T00:55:58;99476.42;;;16.58;100.0
64025;BME280;50266;57.446;26.936;2023-08-21T00:56:58;99473.48;;;16.58;100.0
64025;BME280;50266;57.446;26.936;2023-08-21T00:57:58;99470.28;;;16.57;100.0
64025;BME280;50266;57.446;26.936;2023-08-21T00:58:58;99469.17;;;16.6;100.0
64025;BME280;50266;57.446;26.936;2023-08-21T00:59:59;99463.14;;;16.57;100.0
64025;BME280;50266;57.446;26.936;2023-08-21T01:00:58;99465.61;;;16.58;100.0
64025;BME280;50266;57.446;26.936;2023-08-21T01:01:58;99466.17;;;16.57;100.0
64025;BME280;50266;57.446;26.936;2023-08-21T01:02:58;99466.41;;;16.56;100.0
64025;BME280;50266;57.446;26.936;2023-08-21T01:03:58;99463.8;;;16.56;100.0
64025;BME280;50266;57.446;26.936;2023-08-21T01:04:58;99467.59;;;16.57;100.0
64025;BME280;50266;57.446;26.936;2023-08-21T01:05:58;99466.97;;;16.59;100.0
64025;BME280;50266;57.446;26.936;2023-08-21T01:06:58;99467.91;;;16.6;100.0
64025;BME280;50266;57.446;26.936;2023-08-21T01:10:03;99462.28;;;16.56;100.0
64025;BME280;50266;57.446;26.936;2023-08-21T01:12:12;99461.55;;;16.57;100.0
64025;BME280;50266;57.446;26.936;2023-08-21T01:14:31;99465.08;;;16.57;100.0
64025;BME280;50266;57.446;26.936;2023-08-21T01:15:14;99463.69;;;16.59;100.0
64025;BME280;50266;57.446;26.936;2023-08-21T01:16:14;99464.21;;;16.6;100.0
64025;BME280;50266;57.446;26.936;2023-08-21T01:17:14;99463.71;;;16.56;100.0
64025;BME280;50266;57.446;26.936;2023-08-21T01:18:14;99460.07;;;16.58;100.0
64025;BME280;50266;57.446;26.936;2023-08-21T01:19:19;99463.33;;;16.58;100.0
64025;BME280;50266;57.446;26.936;2023-08-21T01:20:15;99460.56;;;16.53;100.0
64025;BME280;50266;57.446;26.936;2023-08-21T01:21:15;99454.68;;;16.57;100.0
64025;BME280;50266;57.446;26.936;2023-08-21T01:22:15;99454.97;;;16.59;100.0
64025;BME280;50266;57.446;26.936;2023-08-21T01:24:20;99456.2;;;16.58;100.0
64025;BME280;50266;57.446;26.936;2023-08-21T01:25:20;99454.5;;;16.56;100.0
64025;BME280;50266;57.446;26.936;2023-08-21T01:26:20;99452.78;;;16.54;100.0
64025;BME280;50266;57.446;26.936;2023-08-21T01:27:20;99454.38;;;16.55;100.0
64025;BME280;50266;57.446;26.936;2023-08-21T01:28:20;99451.16;;;16.57;100.0
64025;BME280;50266;57.446;26.936;2023-08-21T01:29:20;99453.87;;;16.58;100.0
64025;BME280;50266;57.446;26.936;2023-08-21T01:30:20;99451.7;;;16.59;100.0
64025;BME280;50266;57.446;26.936;2023-08-21T01:31:26;99452.53;;;16.59;100.0
64025;BME280;50266;57.446;26.936;2023-08-21T01:32:29;99446.72;;;16.57;100.0
64025;BME280;50266;57.446;26.936;2023-08-21T01:33:24;99449.38;;;16.61;100.0
64025;BME280;50266;57.446;26.936;2023-08-21T01:34:24;99450.92;;;16.58;100.0
64025;BME280;50266;57.446;26.936;2023-08-21T01:35:24;99450.34;;;16.58;100.0
64025;BME280;50266;57.446;26.936;2023-08-21T01:36:24;99453.69;;;16.58;100.0
64025;BME280;50266;57.446;26.936;2023-08-21T01:37:24;99448.67;;;16.59;100.0
64025;BME280;50266;57.446;26.936;2023-08-21T01:38:24;99449.12;;;16.61;100.0
64025;BME280;50266;57.446;26.936;2023-08-21T01:39:24;99447.31;;;16.62;100.0
64025;BME280;50266;57.446;26.936;2023-08-21T01:40:24;99446.33;;;16.63;100.0
64025;BME280;50266;57.446;26.936;2023-08-21T01:41:24;99445.05;;;16.62;100.0
64025;BME280;50266;57.446;26.936;2023-08-21T01:42:24;99443.64;;;16.63;100.0
64025;BME280;50266;57.446;26.936;2023-08-21T01:43:24;99441.81;;;16.64;100.0
64025;BME280;50266;57.446;26.936;2023-08-21T01:44:24;99444.91;;;16.63;100.0
64025;BME280;50266;57.446;26.936;2023-08-21T01:45:24;99445.81;;;16.68;100.0
64025;BME280;50266;57.446;26.936;2023-08-21T01:46:24;99447.48;;;16.67;100.0
64025;BME280;50266;57.446;26.936;2023-08-21T01:47:24;99450.23;;;16.66;100.0
64025;BME280;50266;57.446;26.936;2023-08-21T01:48:24;99446.66;;;16.68;100.0
64025;BME280;50266;57.446;26.936;2023-08-21T01:49:24;99450.7;;;16.69;100.0
64025;BME280;50266;57.446;26.936;2023-08-21T01:50:24;99450.12;;;16.69;100.0
64025;BME280;50266;57.446;26.936;2023-08-21T01:51:24;99448.78;;;16.69;100.0
64025;BME280;50266;57.446;26.936;2023-08-21T01:52:24;99452.11;;;16.73;100.0
64025;BME280;50266;57.446;26.936;2023-08-21T01:53:24;99448.18;;;16.73;100.0
64025;BME280;50266;57.446;26.936;2023-08-21T01:54:24;99449.07;;;16.76;100.0
64025;BME280;50266;57.446;26.936;2023-08-21T01:55:24;99447.41;;;16.76;100.0
64025;BME280;50266;57.446;26.936;2023-08-21T01:56:24;99448.95;;;16.79;100.0
64025;BME280;50266;57.446;26.936;2023-08-21T01:57:24;99450.95;;;16.77;100.0
64025;BME280;50266;57.446;26.936;2023-08-21T01:58:24;99453.15;;;16.79;100.0
64025;BME280;50266;57.446;26.936;2023-08-21T01:59:24;99446.61;;;16.79;100.0
64025;BME280;50266;57.446;26.936;2023-08-21T02:00:24;99451.44;;;16.77;100.0
64025;BME280;50266;57.446;26.936;2023-08-21T02:01:24;99447.8;;;16.8;100.0
64025;BME280;50266;57.446;26.936;2023-08-21T02:02:24;99447.66;;;16.81;100.0
64025;BME280;50266;57.446;26.936;2023-08-21T02:03:25;99444.89;;;16.81;100.0
64025;BME280;50266;57.446;26.936;2023-08-21T02:04:24;99444.23;;;16.82;100.0
64025;BME280;50266;57.446;26.936;2023-08-21T02:05:29;99443.27;;;16.79;100.0
64025;BME280;50266;57.446;26.936;2023-08-21T02:06:26;99441.38;;;16.82;100.0
64025;BME280;50266;57.446;26.936;2023-08-21T02:07:26;99433.72;;;16.8;100.0
64025;BME280;50266;57.446;26.936;2023-08-21T02:08:32;99433.48;;;16.82;100.0
64025;BME280;50266;57.446;26.936;2023-08-21T02:09:29;99430.26;;;16.79;100.0
64025;BME280;50266;57.446;26.936;2023-08-21T02:10:29;99430.88;;;16.77;100.0
64025;BME280;50266;57.446;26.936;2023-08-21T02:11:29;99427.3;;;16.78;100.0
64025;BME280;50266;57.446;26.936;2023-08-21T02:12:29;99429.06;;;16.78;100.0
64025;BME280;50266;57.446;26.936;2023-08-21T02:13:29;99427.09;;;16.76;100.0
64025;BME280;50266;57.446;26.936;2023-08-21T02:14:29;99425.7;;;16.78;100.0
64025;BME280;50266;57.446;26.936;2023-08-21T02:15:29;99428.85;;;16.76;100.0
64025;BME280;50266;57.446;26.936;2023-08-21T02:16:29;99424.0;;;16.76;100.0
64025;BME280;50266;57.446;26.936;2023-08-21T02:17:29;99422.74;;;16.76;100.0
64025;BME280;50266;57.446;26.936;2023-08-21T02:18:29;99421.47;;;16.76;100.0
64025;BME280;50266;57.446;26.936;2023-08-21T02:19:29;99422.88;;;16.74;100.0
64025;BME280;50266;57.446;26.936;2023-08-21T02:20:29;99418.97;;;16.72;100.0
64025;BME280;50266;57.446;26.936;2023-08-21T02:21:29;99416.73;;;16.74;100.0
64025;BME280;50266;57.446;26.936;2023-08-21T02:22:29;99419.48;;;16.72;100.0
64025;BME280;50266;57.446;26.936;2023-08-21T02:23:29;99421.52;;;16.73;100.0
64025;BME280;50266;57.446;26.936;2023-08-21T02:24:29;99424.31;;;16.75;100.0
64025;BME280;50266;57.446;26.936;2023-08-21T02:25:29;99423.92;;;16.72;100.0
64025;BME280;50266;57.446;26.936;2023-08-21T02:26:29;99425.55;;;16.74;100.0
64025;BME280;50266;57.446;26.936;2023-08-21T02:27:29;99424.03;;;16.73;100.0
64025;BME280;50266;57.446;26.936;2023-08-21T02:28:29;99425.73;;;16.7;100.0
64025;BME280;50266;57.446;26.936;2023-08-21T02:29:29;99424.27;;;16.72;100.0
64025;BME280;50266;57.446;26.936;2023-08-21T02:30:29;99426.98;;;16.74;100.0
64025;BME280;50266;57.446;26.936;2023-08-21T02:31:29;99426.31;;;16.74;100.0
64025;BME280;50266;57.446;26.936;2023-08-21T02:32:29;99425.77;;;16.76;100.0
64025;BME280;50266;57.446;26.936;2023-08-21T02:33:29;99423.31;;;16.75;100.0
64025;BME280;50266;57.446;26.936;2023-08-21T02:34:29;99423.0;;;16.72;100.0
64025;BME280;50266;57.446;26.936;2023-08-21T02:35:30;99426.98;;;16.74;100.0
64025;BME280;50266;57.446;26.936;2023-08-21T02:36:30;99425.84;;;16.76;100.0
64025;BME280;50266;57.446;26.936;2023-08-21T02:37:30;99431.47;;;16.76;100.0
64025;BME280;50266;57.446;26.936;2023-08-21T02:38:30;99430.03;;;16.76;100.0
64025;BME280;50266;57.446;26.936;2023-08-21T02:39:30;99428.17;;;16.75;100.0
64025;BME280;50266;57.446;26.936;2023-08-21T02:40:30;99425.55;;;16.73;100.0
64025;BME280;50266;57.446;26.936;2023-08-21T02:41:30;99427.0;;;16.75;100.0
64025;BME280;50266;57.446;26.936;2023-08-21T02:42:30;99427.84;;;16.76;100.0
64025;BME280;50266;57.446;26.936;2023-08-21T02:43:30;99425.79;;;16.73;100.0
64025;BME280;50266;57.446;26.936;2023-08-21T02:44:30;99423.14;;;16.75;100.0
64025;BME280;50266;57.446;26.936;2023-08-21T02:45:30;99427.19;;;16.76;100.0
64025;BME280;50266;57.446;26.936;2023-08-21T02:46:30;99424.85;;;16.77;100.0
64025;BME280;50266;57.446;26.936;2023-08-21T02:47:30;99422.26;;;16.77;100.0
64025;BME280;50266;57.446;26.936;2023-08-21T02:48:30;99421.56;;;16.76;100.0
64025;BME280;50266;57.446;26.936;2023-08-21T02:49:30;99422.62;;;16.74;100.0
64025;BME280;50266;57.446;26.936;2023-08-21T02:50:30;99422.16;;;16.76;100.0
64025;BME280;50266;57.446;26.936;2023-08-21T02:51:30;99424.12;;;16.74;100.0
64025;BME280;50266;57.446;26.936;2023-08-21T02:52:30;99423.22;;;16.7;100.0
64025;BME280;50266;57.446;26.936;2023-08-21T02:53:30;99425.83;;;16.7;100.0
64025;BME280;50266;57.446;26.936;2023-08-21T02:54:30;99423.78;;;16.69;100.0
64025;BME280;50266;57.446;26.936;2023-08-21T02:55:30;99421.8;;;16.7;100.0
64025;BME280;50266;57.446;26.936;2023-08-21T02:56:30;99427.7;;;16.72;100.0
64025;BME280;50266;57.446;26.936;2023-08-21T02:57:30;99424.84;;;16.72;100.0
64025;BME280;50266;57.446;26.936;2023-08-21T02:58:30;99421.28;;;16.74;100.0
64025;BME280;50266;57.446;26.936;2023-08-21T02:59:30;99424.71;;;16.79;100.0
64025;BME280;50266;57.446;26.936;2023-08-21T03:00:30;99422.09;;;16.77;100.0
64025;BME280;50266;57.446;26.936;2023-08-21T03:01:30;99422.08;;;16.77;100.0
64025;BME280;50266;57.446;26.936;2023-08-21T03:02:30;99419.55;;;16.76;100.0
64025;BME280;50266;57.446;26.936;2023-08-21T03:03:30;99418.83;;;16.78;100.0
64025;BME280;50266;57.446;26.936;2023-08-21T03:04:30;99424.37;;;16.78;100.0
64025;BME280;50266;57.446;26.936;2023-08-21T03:05:30;99421.69;;;16.78;100.0
64025;BME280;50266;57.446;26.936;2023-08-21T03:06:30;99422.93;;;16.77;100.0
64025;BME280;50266;57.446;26.936;2023-08-21T03:07:30;99423.7;;;16.79;100.0
64025;BME280;50266;57.446;26.936;2023-08-21T03:08:31;99421.65;;;16.76;100.0
64025;BME280;50266;57.446;26.936;2023-08-21T03:09:30;99425.94;;;16.77;100.0
64025;BME280;50266;57.446;26.936;2023-08-21T03:10:30;99423.59;;;16.77;100.0
64025;BME280;50266;57.446;26.936;2023-08-21T03:11:30;99426.84;;;16.76;100.0
64025;BME280;50266;57.446;26.936;2023-08-21T03:12:30;99432.95;;;16.75;100.0
64025;BME280;50266;57.446;26.936;2023-08-21T03:13:30;99431.59;;;16.79;100.0
64025;BME280;50266;57.446;26.936;2023-08-21T03:14:30;99430.05;;;16.82;100.0
64025;BME280;50266;57.446;26.936;2023-08-21T03:15:30;99428.97;;;16.84;100.0
64025;BME280;50266;57.446;26.936;2023-08-21T03:16:30;99427.92;;;16.8;100.0
64025;BME280;50266;57.446;26.936;2023-08-21T03:17:30;99431.56;;;16.83;100.0
64025;BME280;50266;57.446;26.936;2023-08-21T03:18:31;99429.39;;;16.82;100.0
64025;BME280;50266;57.446;26.936;2023-08-21T03:19:30;99430.66;;;16.78;100.0
64025;BME280;50266;57.446;26.936;2023-08-21T03:20:30;99430.56;;;16.78;100.0
64025;BME280;50266;57.446;26.936;2023-08-21T03:21:30;99427.82;;;16.79;100.0
64025;BME280;50266;57.446;26.936;2023-08-21T03:22:30;99428.89;;;16.82;100.0
64025;BME280;50266;57.446;26.936;2023-08-21T03:23:30;99428.59;;;16.8;100.0
64025;BME280;50266;57.446;26.936;2023-08-21T03:24:30;99427.83;;;16.79;100.0
64025;BME280;50266;57.446;26.936;2023-08-21T03:25:30;99429.77;;;16.8;100.0
64025;BME280;50266;57.446;26.936;2023-08-21T03:26:30;99431.52;;;16.79;100.0
64025;BME280;50266;57.446;26.936;2023-08-21T03:27:30;99430.09;;;16.79;100.0
64025;BME280;50266;57.446;26.936;2023-08-21T03:28:30;99425.3;;;16.83;100.0
64025;BME280;50266;57.446;26.936;2023-08-21T03:29:30;99430.13;;;16.82;100.0
64025;BME280;50266;57.446;26.936;2023-08-21T03:30:30;99432.08;;;16.84;100.0
64025;BME280;50266;57.446;26.936;2023-08-21T03:31:31;99427.39;;;16.79;100.0
64025;BME280;50266;57.446;26.936;2023-08-21T03:32:31;99427.63;;;16.78;100.0
64025;BME280;50266;57.446;26.936;2023-08-21T03:33:31;99429.0;;;16.79;100.0
64025;BME280;50266;57.446;26.936;2023-08-21T03:34:31;99432.75;;;16.78;100.0
64025;BME280;50266;57.446;26.936;2023-08-21T03:35:31;99430.41;;;16.78;100.0
64025;BME280;50266;57.446;26.936;2023-08-21T03:36:31;99431.15;;;16.84;100.0
64025;BME280;50266;57.446;26.936;2023-08-21T03:37:31;99427.89;;;16.83;100.0
64025;BME280;50266;57.446;26.936;2023-08-21T03:38:31;99427.07;;;16.79;100.0
64025;BME280;50266;57.446;26.936;2023-08-21T03:39:31;99427.23;;;16.79;100.0
64025;BME280;50266;57.446;26.936;2023-08-21T03:40:31;99425.34;;;16.81;100.0
64025;BME280;50266;57.446;26.936;2023-08-21T03:41:31;99422.34;;;16.82;100.0
64025;BME280;50266;57.446;26.936;2023-08-21T03:42:31;99419.64;;;16.83;100.0
64025;BME280;50266;57.446;26.936;2023-08-21T03:43:31;99421.41;;;16.89;100.0
64025;BME280;50266;57.446;26.936;2023-08-21T03:44:31;99419.52;;;16.86;100.0
64025;BME280;50266;57.446;26.936;2023-08-21T03:45:31;99416.62;;;16.88;100.0
64025;BME280;50266;57.446;26.936;2023-08-21T03:46:31;99418.91;;;16.85;100.0
64025;BME280;50266;57.446;26.936;2023-08-21T03:47:31;99415.06;;;16.83;100.0
64025;BME280;50266;57.446;26.936;2023-08-21T03:48:31;99417.73;;;16.83;100.0
64025;BME280;50266;57.446;26.936;2023-08-21T03:49:31;99417.8;;;16.81;100.0
64025;BME280;50266;57.446;26.936;2023-08-21T03:50:31;99418.93;;;16.79;100.0
64025;BME280;50266;57.446;26.936;2023-08-21T03:51:31;99421.0;;;16.72;100.0
64025;BME280;50266;57.446;26.936;2023-08-21T03:52:31;99419.16;;;16.78;100.0
64025;BME280;50266;57.446;26.936;2023-08-21T03:53:31;99420.17;;;16.84;100.0
64025;BME280;50266;57.446;26.936;2023-08-21T03:54:31;99417.16;;;16.85;100.0
64025;BME280;50266;57.446;26.936;2023-08-21T03:55:31;99418.95;;;16.8;100.0
64025;BME280;50266;57.446;26.936;2023-08-21T03:56:31;99421.94;;;16.83;100.0
64025;BME280;50266;57.446;26.936;2023-08-21T03:57:31;99418.6;;;16.79;100.0
64025;BME280;50266;57.446;26.936;2023-08-21T03:58:31;99414.39;;;16.74;100.0
64025;BME280;50266;57.446;26.936;2023-08-21T03:59:31;99416.95;;;16.76;100.0
64025;BME280;50266;57.446;26.936;2023-08-21T04:00:31;99414.91;;;16.79;100.0
64025;BME280;50266;57.446;26.936;2023-08-21T04:01:31;99412.36;;;16.77;100.0
64025;BME280;50266;57.446;26.936;2023-08-21T04:02:31;99416.14;;;16.78;100.0
64025;BME280;50266;57.446;26.936;2023-08-21T04:03:31;99412.97;;;16.79;100.0
64025;BME280;50266;57.446;26.936;2023-08-21T04:04:31;99415.48;;;16.78;100.0
64025;BME280;50266;57.446;26.936;2023-08-21T04:05:31;99416.25;;;16.75;100.0
64025;BME280;50266;57.446;26.936;2023-08-21T04:06:31;99413.91;;;16.75;100.0
64025;BME280;50266;57.446;26.936;2023-08-21T04:07:31;99419.15;;;16.77;100.0
64025;BME280;50266;57.446;26.936;2023-08-21T04:08:31;99415.96;;;16.77;100.0
64025;BME280;50266;57.446;26.936;2023-08-21T04:09:31;99416.45;;;16.76;100.0
64025;BME280;50266;57.446;26.936;2023-08-21T04:10:31;99419.19;;;16.79;100.0
64025;BME280;50266;57.446;26.936;2023-08-21T04:11:31;99418.02;;;16.79;100.0
64025;BME280;50266;57.446;26.936;2023-08-21T04:12:31;99417.53;;;16.76;100.0
64025;BME280;50266;57.446;26.936;2023-08-21T04:13:31;99419.38;;;16.76;100.0
64025;BME280;50266;57.446;26.936;2023-08-21T04:14:31;99416.76;;;16.75;100.0
64025;BME280;50266;57.446;26.936;2023-08-21T04:15:33;99413.36;;;16.77;100.0
64025;BME280;50266;57.446;26.936;2023-08-21T04:16:31;99413.42;;;16.8;100.0
64025;BME280;50266;57.446;26.936;2023-08-21T04:17:31;99417.58;;;16.83;100.0
64025;BME280;50266;57.446;26.936;2023-08-21T04:18:31;99416.05;;;16.77;100.0
64025;BME280;50266;57.446;26.936;2023-08-21T04:19:32;99416.37;;;16.72;100.0
64025;BME280;50266;57.446;26.936;2023-08-21T04:20:32;99413.84;;;16.75;100.0
64025;BME280;50266;57.446;26.936;2023-08-21T04:21:32;99415.84;;;16.7;100.0
64025;BME280;50266;57.446;26.936;2023-08-21T04:22:32;99418.16;;;16.73;100.0
64025;BME280;50266;57.446;26.936;2023-08-21T04:23:32;99418.19;;;16.8;100.0
64025;BME280;50266;57.446;26.936;2023-08-21T04:24:38;99415.78;;;16.77;100.0
64025;BME280;50266;57.446;26.936;2023-08-21T04:25:34;99420.16;;;16.84;100.0
64025;BME280;50266;57.446;26.936;2023-08-21T04:26:34;99419.06;;;16.77;100.0
64025;BME280;50266;57.446;26.936;2023-08-21T04:27:34;99417.97;;;16.68;100.0
64025;BME280;50266;57.446;26.936;2023-08-21T04:28:35;99419.54;;;16.63;100.0
64025;BME280;50266;57.446;26.936;2023-08-21T04:29:38;99413.1;;;16.67;100.0
64025;BME280;50266;57.446;26.936;2023-08-21T04:30:35;99414.46;;;16.68;100.0
64025;BME280;50266;57.446;26.936;2023-08-21T04:31:35;99415.59;;;16.65;100.0
64025;BME280;50266;57.446;26.936;2023-08-21T04:32:35;99410.14;;;16.66;100.0
64025;BME280;50266;57.446;26.936;2023-08-21T04:33:35;99410.46;;;16.7;100.0
64025;BME280;50266;57.446;26.936;2023-08-21T04:34:35;99406.41;;;16.68;100.0
64025;BME280;50266;57.446;26.936;2023-08-21T04:35:38;99406.71;;;16.71;100.0
64025;BME280;50266;57.446;26.936;2023-08-21T04:36:35;99409.1;;;16.73;100.0
64025;BME280;50266;57.446;26.936;2023-08-21T04:37:37;99405.48;;;16.68;100.0
64025;BME280;50266;57.446;26.936;2023-08-21T04:38:35;99412.33;;;16.71;100.0
64025;BME280;50266;57.446;26.936;2023-08-21T04:39:35;99414.17;;;16.71;100.0
64025;BME280;50266;57.446;26.936;2023-08-21T04:40:35;99411.22;;;16.7;100.0
64025;BME280;50266;57.446;26.936;2023-08-21T04:41:35;99417.62;;;16.71;100.0
64025;BME280;50266;57.446;26.936;2023-08-21T04:42:35;99417.73;;;16.68;100.0
64025;BME280;50266;57.446;26.936;2023-08-21T04:43:35;99418.19;;;16.65;100.0
64025;BME280;50266;57.446;26.936;2023-08-21T04:44:35;99418.39;;;16.62;100.0
64025;BME280;50266;57.446;26.936;2023-08-21T04:45:35;99422.7;;;16.6;100.0
64025;BME280;50266;57.446;26.936;2023-08-21T04:46:36;99427.5;;;16.65;100.0
64025;BME280;50266;57.446;26.936;2023-08-21T04:47:35;99424.47;;;16.65;100.0
64025;BME280;50266;57.446;26.936;2023-08-21T04:48:35;99429.3;;;16.72;100.0
64025;BME280;50266;57.446;26.936;2023-08-21T04:49:35;99427.95;;;16.76;100.0
64025;BME280;50266;57.446;26.936;2023-08-21T04:50:35;99425.55;;;16.64;100.0
64025;BME280;50266;57.446;26.936;2023-08-21T04:51:35;99430.11;;;16.61;100.0
64025;BME280;50266;57.446;26.936;2023-08-21T04:52:35;99428.39;;;16.64;100.0
64025;BME280;50266;57.446;26.936;2023-08-21T04:53:35;99428.3;;;16.68;100.0
64025;BME280;50266;57.446;26.936;2023-08-21T04:54:35;99427.16;;;16.63;100.0
64025;BME280;50266;57.446;26.936;2023-08-21T04:55:35;99425.0;;;16.66;100.0
64025;BME280;50266;57.446;26.936;2023-08-21T04:56:35;99428.27;;;16.62;100.0
64025;BME280;50266;57.446;26.936;2023-08-21T04:57:35;99427.08;;;16.66;100.0
64025;BME280;50266;57.446;26.936;2023-08-21T04:58:35;99426.11;;;16.77;100.0
64025;BME280;50266;57.446;26.936;2023-08-21T04:59:35;99424.78;;;16.78;100.0
64025;BME280;50266;57.446;26.936;2023-08-21T05:00:35;99423.08;;;16.76;100.0
64025;BME280;50266;57.446;26.936;2023-08-21T05:01:35;99421.74;;;16.82;100.0
64025;BME280;50266;57.446;26.936;2023-08-21T05:02:35;99421.77;;;16.83;100.0
64025;BME280;50266;57.446;26.936;2023-08-21T05:03:35;99422.09;;;16.77;100.0
64025;BME280;50266;57.446;26.936;2023-08-21T05:04:36;99420.86;;;16.79;100.0
64025;BME280;50266;57.446;26.936;2023-08-21T05:05:35;99417.63;;;16.77;100.0
64025;BME280;50266;57.446;26.936;2023-08-21T05:06:35;99418.08;;;16.9;100.0
64025;BME280;50266;57.446;26.936;2023-08-21T05:07:35;99420.28;;;16.92;100.0
64025;BME280;50266;57.446;26.936;2023-08-21T05:08:35;99414.88;;;16.9;100.0
64025;BME280;50266;57.446;26.936;2023-08-21T05:09:35;99414.06;;;16.91;100.0
64025;BME280;50266;57.446;26.936;2023-08-21T05:10:35;99415.96;;;16.89;100.0
64025;BME280;50266;57.446;26.936;2023-08-21T05:11:35;99416.16;;;16.91;100.0
64025;BME280;50266;57.446;26.936;2023-08-21T05:12:35;99413.02;;;16.89;100.0
64025;BME280;50266;57.446;26.936;2023-08-21T05:13:35;99416.76;;;16.79;100.0
64025;BME280;50266;57.446;26.936;2023-08-21T05:14:35;99414.65;;;16.86;100.0
64025;BME280;50266;57.446;26.936;2023-08-21T05:15:36;99417.62;;;16.98;100.0
64025;BME280;50266;57.446;26.936;2023-08-21T05:16:35;99416.86;;;16.98;100.0
64025;BME280;50266;57.446;26.936;2023-08-21T05:17:35;99419.23;;;16.99;100.0
64025;BME280;50266;57.446;26.936;2023-08-21T05:18:35;99417.16;;;17.0;100.0
64025;BME280;50266;57.446;26.936;2023-08-21T05:19:35;99422.12;;;17.09;100.0
64025;BME280;50266;57.446;26.936;2023-08-21T05:20:35;99419.55;;;17.03;100.0